createdAt,value
2023-10-18T00:00:45.754Z,74.96
2023-10-18T00:03:12.847Z,74.40
2023-10-18T00:05:43.317Z,73.00
2023-10-18T00:08:11.035Z,73.63
2023-10-18T00:10:38.029Z,73.37
2023-10-18T00:13:04.919Z,73.44
2023-10-18T00:15:32.775Z,72.75
2023-10-18T00:17:59.710Z,73.06
2023-10-18T00:20:27.341Z,72.72
2023-10-18T00:22:55.848Z,72.49
2023-10-18T00:25:23.243Z,72.83
2023-10-18T00:27:50.875Z,73.28
2023-10-18T00:30:21.288Z,73.51
2023-10-18T00:32:48.554Z,73.09
2023-10-18T00:35:23.308Z,72.83
2023-10-18T00:37:56.780Z,76.63
2023-10-18T00:40:50.655Z,73.77
2023-10-18T00:43:21.683Z,73.31
2023-10-18T00:45:52.021Z,75.21
2023-10-18T00:48:28.607Z,73.68
2023-10-18T00:50:58.820Z,73.17
2023-10-18T00:53:32.312Z,72.95
2023-10-18T00:56:01.277Z,73.45
2023-10-18T00:58:33.197Z,72.72
2023-10-18T01:01:10.371Z,75.15
2023-10-18T01:03:52.840Z,81.70
2023-10-18T01:06:23.701Z,75.71
2023-10-18T01:08:51.780Z,74.33
2023-10-18T01:11:29.599Z,75.77
2023-10-18T01:13:57.357Z,74.81
2023-10-18T01:16:25.168Z,74.98
2023-10-18T01:18:57.276Z,74.97
2023-10-18T01:21:25.023Z,73.43
2023-10-18T01:23:54.850Z,74.67
2023-10-18T01:26:26.781Z,82.49
2023-10-18T01:28:55.685Z,77.21
2023-10-18T01:31:23.837Z,78.01
2023-10-18T01:33:52.757Z,77.48
2023-10-18T01:36:22.718Z,75.48
2023-10-18T01:38:54.279Z,76.13
2023-10-18T01:41:31.585Z,74.67
2023-10-18T01:44:11.737Z,75.24
2023-10-18T01:46:46.693Z,75.15
2023-10-18T01:49:22.718Z,76.85
2023-10-18T01:51:53.678Z,75.09
2023-10-18T01:54:21.772Z,79.63
2023-10-18T01:56:48.547Z,78.44
2023-10-18T01:59:19.081Z,77.13
2023-10-18T02:01:55.268Z,75.96
2023-10-18T02:04:36.385Z,75.38
2023-10-18T02:07:19.419Z,74.60
2023-10-18T02:09:51.591Z,75.26
2023-10-18T02:12:22.995Z,81.42
2023-10-18T02:14:51.530Z,78.82
2023-10-18T02:17:23.300Z,76.39
2023-10-18T02:19:50.706Z,78.60
2023-10-18T02:22:17.858Z,81.90
2023-10-18T02:24:45.014Z,77.53
2023-10-18T02:27:17.563Z,82.42
2023-10-18T02:29:46.420Z,77.49
2023-10-18T02:32:34.367Z,75.85
2023-10-18T02:35:06.031Z,76.01
2023-10-18T02:37:33.216Z,75.95
2023-10-18T02:40:09.549Z,77.74
2023-10-18T02:42:38.181Z,82.94
2023-10-18T02:45:15.361Z,84.94
2023-10-18T02:47:42.914Z,80.74
2023-10-18T02:50:10.085Z,78.90
2023-10-18T02:52:36.868Z,77.72
2023-10-18T02:55:04.509Z,77.70
2023-10-18T02:57:33.705Z,76.81
2023-10-18T03:00:11.664Z,77.26
2023-10-18T03:02:40.125Z,77.71
2023-10-18T03:05:08.238Z,77.42
2023-10-18T03:07:36.331Z,77.58
2023-10-18T03:10:12.830Z,77.46
2023-10-18T03:12:40.206Z,78.27
2023-10-18T03:15:12.959Z,78.11
2023-10-18T03:17:39.793Z,78.18
2023-10-18T03:20:23.643Z,78.50
2023-10-18T03:22:51.583Z,81.35
2023-10-18T03:25:18.626Z,78.88
2023-10-18T03:27:58.973Z,78.01
2023-10-18T03:30:42.040Z,79.27
2023-10-18T03:33:09.344Z,77.47
2023-10-18T03:35:41.044Z,77.74
2023-10-18T03:38:23.078Z,78.38
2023-10-18T03:40:57.750Z,78.11
2023-10-18T03:43:28.144Z,78.22
2023-10-18T03:46:14.079Z,78.34
2023-10-18T03:48:45.993Z,78.55
2023-10-18T03:51:21.649Z,83.23
2023-10-18T03:53:54.748Z,85.42
2023-10-18T03:56:23.495Z,84.79
2023-10-18T03:58:54.669Z,80.65
2023-10-18T04:01:23.203Z,80.83
2023-10-18T04:03:53.985Z,79.06
2023-10-18T04:06:24.844Z,78.92
2023-10-18T04:08:51.645Z,78.68
2023-10-18T04:11:25.804Z,79.03
2023-10-18T04:13:52.663Z,79.25
2023-10-18T04:16:20.132Z,80.05
2023-10-18T04:18:47.157Z,78.84
2023-10-18T04:21:16.544Z,83.35
2023-10-18T04:23:47.671Z,85.31
2023-10-18T04:26:19.809Z,85.23
2023-10-18T04:28:47.087Z,81.41
2023-10-18T04:31:16.120Z,79.58
2023-10-18T04:33:44.064Z,79.36
2023-10-18T04:36:14.053Z,78.11
2023-10-18T04:38:44.981Z,80.20
2023-10-18T04:41:25.693Z,82.04
2023-10-18T04:43:58.131Z,78.59
2023-10-18T04:46:28.553Z,78.72
2023-10-18T04:49:16.152Z,85.28
2023-10-18T04:52:03.755Z,86.75
2023-10-18T04:54:43.246Z,87.98
2023-10-18T04:57:13.579Z,86.72
2023-10-18T04:59:46.762Z,84.88
2023-10-18T05:02:27.007Z,87.77
2023-10-18T05:04:53.807Z,88.74
2023-10-18T05:07:21.235Z,87.72
2023-10-18T05:09:56.736Z,82.14
2023-10-18T05:12:46.799Z,79.84
2023-10-18T05:15:18.867Z,83.98
2023-10-18T05:17:46.345Z,80.06
2023-10-18T05:20:39.640Z,79.14
2023-10-18T05:23:07.050Z,78.32
2023-10-18T05:25:37.437Z,81.21
2023-10-18T05:28:11.488Z,82.46
2023-10-18T05:30:58.013Z,82.59
2023-10-18T05:34:00.215Z,88.71
2023-10-18T05:36:47.950Z,83.16
2023-10-18T05:59:50.872Z,90.25
2023-10-18T06:02:27.487Z,84.83
2023-10-18T06:04:59.463Z,82.12
2023-10-18T06:07:28.468Z,81.44
2023-10-18T06:10:16.159Z,85.29
2023-10-18T06:12:48.804Z,86.45
2023-10-18T06:15:18.218Z,88.18
2023-10-18T06:17:48.346Z,85.27
2023-10-18T06:20:48.327Z,85.44
2023-10-18T06:23:53.864Z,82.42
2023-10-18T06:26:30.522Z,86.39
2023-10-18T06:29:03.905Z,89.30
2023-10-18T06:31:31.824Z,83.60
2023-10-18T06:34:05.263Z,81.43
2023-10-18T06:36:35.406Z,81.42
2023-10-18T06:39:02.325Z,80.47
2023-10-18T06:41:32.411Z,80.08
2023-10-18T06:44:02.067Z,78.86
2023-10-18T06:46:30.120Z,78.29
2023-10-18T06:51:34.940Z,79.33
2023-10-18T06:54:04.731Z,79.41
2023-10-18T06:56:40.459Z,80.63
2023-10-18T06:59:08.621Z,79.12
2023-10-18T07:01:42.959Z,79.12
2023-10-18T07:04:20.037Z,78.77
2023-10-18T07:06:47.580Z,80.18
2023-10-18T07:09:26.251Z,80.66
2023-10-18T07:11:54.424Z,84.81
2023-10-18T07:14:25.947Z,85.49
2023-10-18T07:16:56.321Z,82.04
2023-10-18T07:19:28.400Z,81.84
2023-10-18T07:21:56.406Z,82.48
2023-10-18T07:24:26.190Z,81.53
2023-10-18T07:26:54.544Z,81.50
2023-10-18T07:29:22.478Z,82.63
2023-10-18T07:31:49.378Z,82.24
2023-10-18T07:34:19.367Z,81.96
2023-10-18T07:36:47.312Z,81.87
2023-10-18T07:39:17.985Z,81.50
2023-10-18T07:41:45.379Z,80.85
2023-10-18T07:44:12.282Z,81.13
2023-10-18T07:46:42.904Z,81.90
2023-10-18T07:49:15.825Z,81.04
2023-10-18T07:51:49.755Z,81.48
2023-10-18T07:54:19.215Z,80.88
2023-10-18T07:56:55.833Z,80.87
2023-10-18T07:59:31.901Z,80.06
2023-10-18T08:02:31.063Z,80.63
2023-10-18T08:05:02.042Z,80.07
2023-10-18T08:07:34.154Z,80.17
2023-10-18T08:10:08.051Z,80.65
2023-10-18T08:12:35.261Z,79.78
2023-10-18T08:15:05.340Z,80.65
2023-10-18T08:17:44.892Z,80.10
2023-10-18T08:20:45.876Z,79.32
2023-10-18T08:23:47.798Z,78.70
2023-10-18T08:26:14.497Z,78.19
2023-10-18T08:28:43.310Z,78.24
2023-10-18T08:31:36.778Z,77.95
2023-10-18T08:34:08.071Z,77.68
2023-10-18T08:36:35.079Z,77.88
2023-10-18T08:39:03.531Z,76.74
2023-10-18T08:41:35.352Z,78.56
2023-10-18T08:44:20.571Z,76.02
2023-10-18T08:47:08.781Z,76.19
2023-10-18T08:49:46.042Z,75.07
2023-10-18T08:52:13.252Z,72.82
2023-10-18T08:54:43.939Z,72.34
2023-10-18T08:57:12.279Z,73.62
2023-10-18T08:59:47.524Z,73.61
2023-10-18T09:02:23.130Z,70.94
2023-10-18T09:05:00.634Z,72.89
2023-10-18T09:07:46.289Z,73.04
2023-10-18T09:10:34.993Z,71.28
2023-10-18T09:13:30.266Z,68.62
2023-10-18T09:16:03.844Z,68.13
2023-10-18T09:18:35.701Z,69.16
2023-10-18T09:21:34.902Z,69.93
2023-10-18T09:24:01.639Z,66.81
2023-10-18T09:26:37.183Z,70.11
2023-10-18T09:29:04.213Z,68.10
2023-10-18T09:31:32.200Z,67.76
2023-10-18T09:34:09.252Z,66.60
2023-10-18T09:36:47.909Z,68.39
2023-10-18T09:39:16.103Z,66.46
2023-10-18T09:41:42.870Z,64.75
2023-10-18T09:44:10.484Z,64.01
2023-10-18T09:46:39.097Z,62.68
2023-10-18T09:49:11.033Z,63.04
2023-10-18T09:51:45.941Z,65.62
2023-10-18T09:54:14.368Z,62.40
2023-10-18T09:56:41.905Z,61.92
2023-10-18T09:59:17.807Z,59.05
2023-10-18T10:02:07.795Z,60.07
2023-10-18T10:04:37.129Z,60.77
2023-10-18T10:07:23.519Z,63.37
2023-10-18T10:09:51.989Z,63.05
2023-10-18T10:12:19.528Z,64.42
2023-10-18T10:14:47.420Z,64.16
2023-10-18T10:17:19.229Z,62.99
2023-10-18T10:19:51.636Z,63.82
2023-10-18T10:22:26.274Z,63.60
2023-10-18T10:25:06.467Z,62.91
2023-10-18T10:27:59.248Z,62.16
2023-10-18T10:30:36.294Z,63.32
2023-10-18T10:33:13.517Z,66.97
2023-10-18T10:35:48.091Z,64.13
2023-10-18T10:38:16.559Z,62.44
2023-10-18T10:40:49.932Z,64.39
2023-10-18T10:43:20.781Z,64.48
2023-10-18T10:46:12.827Z,66.27
2023-10-18T10:48:43.734Z,63.33
2023-10-18T10:51:34.646Z,63.81
2023-10-18T10:54:02.765Z,62.74
2023-10-18T10:56:52.682Z,61.72
2023-10-18T10:59:22.969Z,62.81
2023-10-18T11:30:24.236Z,62.00
2023-10-18T11:32:55.613Z,61.80
2023-10-18T11:35:47.063Z,60.87
2023-10-18T11:38:14.921Z,61.66
2023-10-18T11:40:45.673Z,61.68
2023-10-18T11:43:13.126Z,60.60
2023-10-18T11:45:41.443Z,61.94
2023-10-18T11:48:15.720Z,61.92
2023-10-18T11:50:52.358Z,62.16
2023-10-18T11:53:25.947Z,59.83
2023-10-18T11:56:03.206Z,61.04
2023-10-18T11:58:33.511Z,58.75
2023-10-18T12:01:18.187Z,60.15
2023-10-18T12:03:45.622Z,60.90
2023-10-18T12:06:15.644Z,61.42
2023-10-18T12:08:49.090Z,61.39
2023-10-18T12:11:16.069Z,62.08
2023-10-18T12:13:43.700Z,63.08
2023-10-18T12:16:10.676Z,60.60
2023-10-18T12:18:37.543Z,60.48
2023-10-18T12:21:06.899Z,60.72
2023-10-18T12:23:37.101Z,61.56
2023-10-18T12:26:07.766Z,59.87
2023-10-18T12:28:39.960Z,61.51
2023-10-18T12:31:18.273Z,61.01
2023-10-18T12:33:51.012Z,60.59
2023-10-18T12:36:24.316Z,61.03
2023-10-18T12:38:51.550Z,59.37
2023-10-18T12:41:28.931Z,58.74
2023-10-18T12:43:55.916Z,59.53
2023-10-18T12:46:23.917Z,59.96
2023-10-18T12:48:51.145Z,59.65
2023-10-18T12:51:19.084Z,61.37
2023-10-18T12:53:50.455Z,59.20
2023-10-18T12:56:49.805Z,59.24
2023-10-18T12:59:24.613Z,60.29
2023-10-18T13:01:51.802Z,60.40
2023-10-18T13:04:18.681Z,60.72
2023-10-18T13:06:47.206Z,60.97
2023-10-18T13:09:20.693Z,60.66
2023-10-18T13:12:13.077Z,60.22
2023-10-18T13:14:40.936Z,60.75
2023-10-18T13:17:12.398Z,59.74
2023-10-18T13:19:43.555Z,60.47
2023-10-18T13:22:18.778Z,61.59
2023-10-18T13:24:46.782Z,61.91
2023-10-18T13:27:16.999Z,61.18
2023-10-18T13:30:12.862Z,60.85
2023-10-18T13:32:41.772Z,61.18
2023-10-18T13:35:16.727Z,61.55
2023-10-18T13:37:44.849Z,61.90
2023-10-18T13:40:20.204Z,61.56
2023-10-18T13:42:47.802Z,61.38
2023-10-18T13:45:15.767Z,61.43
2023-10-18T13:47:42.962Z,62.22
2023-10-18T13:50:11.462Z,61.83
2023-10-18T13:52:42.614Z,61.91
2023-10-18T13:55:09.927Z,62.19
2023-10-18T13:57:36.745Z,61.65
2023-10-18T14:00:08.298Z,62.58
2023-10-18T14:02:38.984Z,63.83
2023-10-18T14:05:12.055Z,64.72
2023-10-18T14:07:38.842Z,64.21
2023-10-18T14:10:29.361Z,63.98
2023-10-18T14:12:56.785Z,66.56
2023-10-18T14:15:23.642Z,64.37
2023-10-18T14:17:56.936Z,65.23
2023-10-18T14:20:26.932Z,65.52
2023-10-18T14:22:57.792Z,64.86
2023-10-18T14:25:26.985Z,68.99
2023-10-18T14:27:54.393Z,65.93
2023-10-18T14:30:21.712Z,65.10
2023-10-18T14:32:48.645Z,65.85
2023-10-18T14:35:18.223Z,65.99
2023-10-18T14:37:47.153Z,66.01
2023-10-18T14:40:14.360Z,66.37
2023-10-18T14:42:41.147Z,66.46
2023-10-18T14:45:08.581Z,66.35
2023-10-18T14:47:39.604Z,66.88
2023-10-18T14:50:08.400Z,66.79
2023-10-18T14:52:35.257Z,68.59
2023-10-18T14:55:04.417Z,67.84
2023-10-18T14:57:31.320Z,67.50
2023-10-18T14:59:58.057Z,68.07
2023-10-18T15:02:25.013Z,67.93
2023-10-18T15:04:53.424Z,68.81
2023-10-18T15:07:20.208Z,68.04
2023-10-18T15:09:47.309Z,67.91
2023-10-18T15:12:17.300Z,68.68
2023-10-18T15:14:45.644Z,67.90
2023-10-18T15:17:12.621Z,68.14
2023-10-18T15:19:40.316Z,68.28
2023-10-18T15:22:07.104Z,67.43
2023-10-18T15:24:41.949Z,67.78
2023-10-18T15:27:14.416Z,69.56
2023-10-18T15:29:41.431Z,69.81
2023-10-18T15:32:09.334Z,67.83
2023-10-18T15:34:39.210Z,67.00
2023-10-18T15:37:07.796Z,68.93
2023-10-18T15:39:35.287Z,68.77
2023-10-18T15:42:02.214Z,69.26
2023-10-18T15:44:31.293Z,69.62
2023-10-18T15:47:01.538Z,70.34
2023-10-18T15:49:30.081Z,69.38
2023-10-18T15:51:58.556Z,70.21
2023-10-18T15:54:25.411Z,68.79
2023-10-18T15:56:52.813Z,67.93
2023-10-18T15:59:19.609Z,68.24
2023-10-18T16:01:58.304Z,68.67
2023-10-18T16:04:27.988Z,68.35
2023-10-18T16:06:57.255Z,70.26
2023-10-18T16:09:24.205Z,68.71
2023-10-18T16:11:50.972Z,69.10
2023-10-18T16:14:17.854Z,69.06
2023-10-18T16:16:44.845Z,70.17
2023-10-18T16:19:11.713Z,67.92
2023-10-18T16:21:39.271Z,69.37
2023-10-18T16:24:07.077Z,70.22
2023-10-18T16:26:34.505Z,70.09
2023-10-18T16:29:02.360Z,69.83
2023-10-18T16:31:31.456Z,68.33
2023-10-18T16:34:01.075Z,70.10
2023-10-18T16:36:28.221Z,70.07
2023-10-18T16:38:55.911Z,70.56
2023-10-18T16:41:22.932Z,69.06
2023-10-18T16:43:52.569Z,71.02
2023-10-18T16:46:22.252Z,68.42
2023-10-18T16:48:51.310Z,67.91
2023-10-18T16:51:18.950Z,69.71
2023-10-18T16:53:47.753Z,71.92
2023-10-18T16:56:15.985Z,70.03
2023-10-18T16:58:43.120Z,72.12
2023-10-18T17:01:13.978Z,71.09
2023-10-18T17:03:46.211Z,69.41
2023-10-18T17:06:14.971Z,70.55
2023-10-18T17:08:44.038Z,69.41
2023-10-18T17:11:16.550Z,68.97
2023-10-18T17:13:49.230Z,70.75
2023-10-18T17:16:18.828Z,69.56
2023-10-18T17:18:46.468Z,72.88
2023-10-18T17:23:45.318Z,72.65
2023-10-18T17:26:13.182Z,71.07
2023-10-18T17:28:40.462Z,71.99
2023-10-18T17:31:07.470Z,72.61
2023-10-18T17:33:34.459Z,73.31
2023-10-18T17:36:01.950Z,73.80
2023-10-18T17:38:28.849Z,73.80
2023-10-18T17:40:55.745Z,73.15
2023-10-18T17:43:23.638Z,74.14
2023-10-18T17:45:51.881Z,74.03
2023-10-18T17:48:19.775Z,71.26
2023-10-18T17:50:47.906Z,73.43
2023-10-18T17:53:15.428Z,75.20
2023-10-18T17:55:45.496Z,74.61
2023-10-18T17:58:18.757Z,74.62
2023-10-18T18:00:54.038Z,73.70
2023-10-18T18:03:24.221Z,72.83
2023-10-18T18:05:51.445Z,73.34
2023-10-18T18:08:27.041Z,74.84
2023-10-18T18:10:55.106Z,73.44
2023-10-18T18:13:23.583Z,72.41
2023-10-18T18:15:51.602Z,74.88
2023-10-18T18:18:25.650Z,74.72
2023-10-18T18:20:54.416Z,75.09
2023-10-18T18:23:21.317Z,73.12
2023-10-18T18:25:48.653Z,74.51
2023-10-18T18:28:16.012Z,71.50
2023-10-18T18:30:45.504Z,73.21
2023-10-18T18:33:13.586Z,73.69
2023-10-18T18:35:41.555Z,71.66
2023-10-18T18:38:09.256Z,74.26
2023-10-18T18:40:39.289Z,74.53
2023-10-18T18:43:06.094Z,75.33
2023-10-18T18:45:32.855Z,77.98
2023-10-18T18:47:59.908Z,74.33
2023-10-18T18:50:26.955Z,79.28
2023-10-18T18:52:53.899Z,77.84
2023-10-18T18:55:22.198Z,78.93
2023-10-18T18:57:51.638Z,79.04
2023-10-18T19:00:21.577Z,80.83
2023-10-18T19:02:50.359Z,80.28
2023-10-18T19:05:17.451Z,81.40
2023-10-18T19:07:44.748Z,77.90
2023-10-18T19:10:16.168Z,78.75
2023-10-18T19:12:44.103Z,82.21
2023-10-18T19:15:12.086Z,83.81
2023-10-18T19:17:42.699Z,84.30
2023-10-18T19:20:13.110Z,87.64
2023-10-18T19:22:40.677Z,87.78
2023-10-18T19:25:08.050Z,88.84
2023-10-18T19:27:36.435Z,88.80
2023-10-18T19:30:13.116Z,89.90
2023-10-18T19:32:40.843Z,86.51
2023-10-18T19:35:10.719Z,91.67
2023-10-18T19:37:38.903Z,92.77
2023-10-18T19:40:08.385Z,92.86
2023-10-18T19:42:35.720Z,93.13
2023-10-18T19:45:03.975Z,96.04
2023-10-18T19:47:31.869Z,94.95
2023-10-18T19:50:00.013Z,98.20
2023-10-18T19:52:28.539Z,97.59
2023-10-18T19:54:55.608Z,99.97
2023-10-18T19:57:22.711Z,96.49
2023-10-18T19:59:52.565Z,99.71
2023-10-18T20:02:20.363Z,99.82
2023-10-18T20:04:47.997Z,99.37
2023-10-18T20:07:17.025Z,100.00
2023-10-18T20:09:44.701Z,100.00
2023-10-18T20:12:12.041Z,100.00
2023-10-18T20:14:39.271Z,100.00
2023-10-18T20:17:07.082Z,94.76
2023-10-18T20:19:34.334Z,95.07
2023-10-18T20:22:01.545Z,100.00
2023-10-18T20:24:28.328Z,100.00
2023-10-18T20:26:55.175Z,100.00
2023-10-18T20:29:22.514Z,100.00
2023-10-18T20:31:49.672Z,93.69
2023-10-18T20:34:16.819Z,100.00
2023-10-18T20:36:44.483Z,100.00
2023-10-18T20:39:11.291Z,100.00
2023-10-18T20:41:39.881Z,100.00
2023-10-18T20:44:26.204Z,100.00
2023-10-18T20:46:53.991Z,100.00
2023-10-18T20:49:24.345Z,99.83
2023-10-18T20:51:53.177Z,97.06
2023-10-18T20:54:21.585Z,100.00
2023-10-18T20:56:55.027Z,100.00
2023-10-18T20:59:30.370Z,100.00
2023-10-18T21:02:04.154Z,100.00
2023-10-18T21:04:34.670Z,100.00
2023-10-18T21:07:01.643Z,100.00
2023-10-18T21:09:28.520Z,100.00
2023-10-18T21:11:55.967Z,100.00
2023-10-18T21:14:24.761Z,100.00
2023-10-18T21:16:53.151Z,100.00
2023-10-18T21:19:20.448Z,100.00
2023-10-18T21:21:49.059Z,100.00
2023-10-18T21:24:16.493Z,100.00
2023-10-18T21:26:43.306Z,100.00
2023-10-18T21:29:10.401Z,100.00
2023-10-18T21:31:38.717Z,100.00
2023-10-18T21:34:05.698Z,100.00
2023-10-18T21:36:33.488Z,100.00
2023-10-18T21:39:00.394Z,100.00
2023-10-18T21:41:27.305Z,100.00
2023-10-18T21:43:54.316Z,100.00
2023-10-18T21:46:21.225Z,100.00
2023-10-18T21:48:48.377Z,99.73
2023-10-18T21:51:16.641Z,99.53
2023-10-18T21:53:44.521Z,100.00
2023-10-18T21:56:15.620Z,100.00
2023-10-18T21:58:48.078Z,100.00
2023-10-18T22:01:34.501Z,100.00
2023-10-18T22:04:05.194Z,100.00
2023-10-18T22:06:35.398Z,100.00
2023-10-18T22:09:24.722Z,100.00
2023-10-18T22:11:52.927Z,100.00
2023-10-18T22:14:20.135Z,100.00
2023-10-18T22:16:55.373Z,100.00
2023-10-18T22:19:32.937Z,100.00
2023-10-18T22:22:13.454Z,100.00
2023-10-18T22:24:40.700Z,100.00
2023-10-18T22:27:14.661Z,100.00
2023-10-18T22:29:42.580Z,100.00
2023-10-18T22:34:43.464Z,100.00
2023-10-18T22:37:13.923Z,100.00
2023-10-18T22:39:45.490Z,100.00
2023-10-18T22:42:23.248Z,100.00
2023-10-18T22:45:09.545Z,100.00
2023-10-18T22:47:52.475Z,100.00
2023-10-18T22:50:39.284Z,97.40
2023-10-18T22:53:41.772Z,98.66
2023-10-18T22:56:11.941Z,100.00
2023-10-18T22:58:38.822Z,100.00
2023-10-18T23:01:10.498Z,100.00
2023-10-18T23:03:37.624Z,97.71
2023-10-18T23:06:11.863Z,100.00
2023-10-18T23:08:38.902Z,96.60
2023-10-18T23:11:28.861Z,100.00
2023-10-18T23:13:56.689Z,100.00
2023-10-18T23:16:55.266Z,100.00
2023-10-18T23:19:49.278Z,100.00
2023-10-18T23:22:35.983Z,100.00
2023-10-18T23:25:22.755Z,100.00
2023-10-18T23:28:08.064Z,100.00
2023-10-18T23:30:40.913Z,100.00
2023-10-18T23:33:46.090Z,100.00
2023-10-18T23:36:15.902Z,100.00
2023-10-18T23:38:44.846Z,100.00
2023-10-18T23:41:21.836Z,100.00
2023-10-18T23:43:50.946Z,100.00
2023-10-18T23:46:56.615Z,100.00
2023-10-18T23:49:47.517Z,100.00
2023-10-18T23:57:55.369Z,100.00
